Coober Pedy, Australia
Current Conditions -  °F | °C
As of 6:00 PM on Friday 28 Nov 2014 (Local Time) from YCBP Reporting Station
Clear Clear  
Wind Chill: 95°   Ceiling: Unl
Heat Index: 95°   Visibility: NA
Dew Point: 18°   Wind: 5mph
Humidity: 6%   Direction: 130°SE
Pressure: 29.83"   Gusts: NA
Location:  29.01°S, 134.75°E
Report Text: YCBP 280800Z AUTO 13004KT 090V170 //// // NCD 35/M08 Q1010
Loading
Personal Weather Stations






























Interactive Weather Map New forecast layout! Learn more

10-Day Weather Forecast

Advertisements
Track Severe Weather on mobile